Time;durP1;ratioP1;P1;durP2;ratioP2;P2;SDS_P1;SDS_P2;PMS_P1;PMS_P2;Temp;Humidity;BMP_temperature;BMP_pressure;BME280_temperature;BME280_humidity;BME280_pressure;Samples;Min_cycle;Max_cycle;Signal;HPM_P1;HPM_P2
2023/04/17 00:00:07;;;;;;;7.70;3.50;;;;;;;5.20;89.20;100630.07;106231;1288;73953;-70
2023/04/17 00:03:15;;;;;;;8.00;3.50;;;;;;;5.21;89.10;100631.05;106401;1292;60863;-68
2023/04/17 00:06:05;;;;;;;7.90;3.60;;;;;;;5.22;89.10;100631.53;106304;1288;60442;-68
2023/04/17 00:08:53;;;;;;;;;;;;;;;5.25;89.47;100634.24;106234;1288;72858;-69
2023/04/17 00:11:41;;;;;;;6.60;3.10;;;;;;;5.24;89.31;100631.80;106318;1288;66652;-69
2023/04/17 00:14:29;;;;;;;7.90;3.10;;;;;;;5.25;89.69;100633.36;106234;1288;72784;-69
2023/04/17 00:17:16;;;;;;;7.30;3.10;;;;;;;5.25;89.60;100634.05;106239;1288;57357;-68
2023/04/17 00:20:09;;;;;;;6.80;2.70;;;;;;;5.27;89.84;100636.61;106488;1288;60073;-68
2023/04/17 00:22:56;;;;;;;7.10;3.20;;;;;;;5.25;89.85;100637.56;106343;1288;72465;-67
2023/04/17 00:25:44;;;;;;;7.30;3.30;;;;;;;5.24;89.94;100637.45;106428;1288;67055;-69
2023/04/17 00:28:32;;;;;;;8.40;3.60;;;;;;;5.24;90.28;100639.21;106200;1288;72826;-68
2023/04/17 00:31:20;;;;;;;9.00;3.90;;;;;;;5.23;90.34;100640.45;106120;1293;58591;-68
2023/04/17 00:34:08;;;;;;;7.80;4.00;;;;;;;5.23;90.46;100645.59;106048;1292;58508;-70
2023/04/17 00:36:58;;;;;;;7.80;3.90;;;;;;;5.24;91.06;100644.81;105916;1292;72825;-69
2023/04/17 00:39:45;;;;;;;7.50;3.80;;;;;;;5.25;91.04;100644.62;106030;1292;67651;-69
2023/04/17 00:42:33;;;;;;;8.20;3.70;;;;;;;5.24;91.43;100646.25;105984;1292;72830;-69
2023/04/17 00:45:21;;;;;;;6.90;3.00;;;;;;;5.22;91.58;100641.56;105965;1292;58358;-68
2023/04/17 00:48:10;;;;;;;7.30;3.70;;;;;;;5.19;91.85;100646.13;105978;1293;60126;-68
2023/04/17 00:51:01;;;;;;;9.00;4.70;;;;;;;5.17;92.18;100645.69;105893;1293;75010;-67
2023/04/17 00:53:49;;;;;;;9.70;4.30;;;;;;;5.18;93.13;100648.44;106045;1293;67856;-69
2023/04/17 00:56:37;;;;;;;9.80;4.60;;;;;;;5.17;93.21;100649.02;106033;1292;72588;-69
2023/04/17 00:59:26;;;;;;;9.10;4.80;;;;;;;5.18;93.65;100647.90;106237;1292;57778;-69
2023/04/17 01:02:16;;;;;;;9.10;4.70;;;;;;;5.17;93.69;100649.35;106266;1288;59233;-69
2023/04/17 01:05:04;;;;;;;9.20;4.70;;;;;;;5.16;93.78;100647.88;106591;1288;71794;-68
2023/04/17 01:07:55;;;;;;;9.10;4.50;;;;;;;5.13;93.76;100648.48;106483;1288;67628;-69
2023/04/17 01:10:43;;;;;;;8.10;4.40;;;;;;;5.14;94.37;100652.86;106315;1288;72467;-68
2023/04/17 01:13:31;;;;;;;8.50;4.20;;;;;;;5.13;94.09;100649.91;106443;1288;58519;-68
2023/04/17 01:16:19;;;;;;;10.30;4.40;;;;;;;5.13;94.33;100652.02;106284;1288;57906;-68
2023/04/17 01:19:07;;;;;;;7.00;3.50;;;;;;;5.12;94.34;100654.51;106430;1288;74157;-67
2023/04/17 01:21:56;;;;;;;9.70;4.70;;;;;;;5.11;94.68;100651.75;106469;1289;67955;-68
2023/04/17 01:24:44;;;;;;;7.50;3.60;;;;;;;5.10;94.40;100651.26;106252;1288;73904;-69
2023/04/17 01:27:34;;;;;;;8.70;4.90;;;;;;;5.11;94.43;100655.81;105566;1288;1002202;-69
2023/04/17 01:30:21;;;;;;;8.40;4.50;;;;;;;5.12;94.21;100659.79;106381;1288;60215;-71
2023/04/17 01:33:20;;;;;;;9.60;4.40;;;;;;;5.11;94.53;100659.66;106377;1288;72873;-69
2023/04/17 01:36:08;;;;;;;7.70;4.00;;;;;;;5.11;94.91;100662.31;106282;1288;66853;-69
2023/04/17 01:38:56;;;;;;;10.10;4.80;;;;;;;5.11;95.08;100661.77;106379;1288;71422;-69
2023/04/17 01:41:44;;;;;;;8.60;4.00;;;;;;;5.11;95.03;100660.54;106457;1288;57376;-67
2023/04/17 01:44:32;;;;;;;10.50;4.00;;;;;;;5.09;94.71;100666.25;106221;1288;58735;-68
2023/04/17 01:47:20;;;;;;;11.00;5.20;;;;;;;5.08;94.68;100662.79;106432;1288;73143;-68
2023/04/17 01:50:09;;;;;;;9.20;4.40;;;;;;;5.06;94.90;100660.77;106487;1288;66628;-68
2023/04/17 01:52:57;;;;;;;8.30;4.20;;;;;;;5.06;95.07;100663.05;106425;1288;71437;-68
2023/04/17 01:55:45;;;;;;;9.20;4.40;;;;;;;5.11;95.62;100665.48;106305;1288;59479;-68
2023/04/17 01:58:33;;;;;;;9.40;4.60;;;;;;;5.15;95.51;100662.30;106514;1288;59070;-68
2023/04/17 02:01:20;;;;;;;;;;;;;;;5.19;95.38;100667.03;106448;1289;73823;-68
2023/04/17 02:04:08;;;;;;;9.80;5.20;;;;;;;5.20;95.28;100667.34;106480;1288;67995;-70
2023/04/17 02:06:57;;;;;;;9.40;4.90;;;;;;;5.19;95.47;100664.76;106496;1288;71465;-69
2023/04/17 02:09:45;;;;;;;9.30;4.20;;;;;;;5.21;95.69;100668.55;106362;1288;58002;-69
2023/04/17 02:12:33;;;;;;;8.50;4.40;;;;;;;5.20;95.47;100668.92;106369;1293;60263;-67
2023/04/17 02:15:20;;;;;;;9.30;5.00;;;;;;;5.19;95.32;100669.71;106330;1288;70811;-69
2023/04/17 02:18:08;;;;;;;8.80;4.70;;;;;;;5.18;95.34;100673.25;106397;1288;68010;-68
2023/04/17 02:20:56;;;;;;;8.40;4.20;;;;;;;5.18;95.57;100671.68;106430;1288;72735;-68
2023/04/17 02:23:44;;;;;;;10.50;5.00;;;;;;;5.18;95.78;100671.86;106394;1288;60852;-68
2023/04/17 02:26:32;;;;;;;10.60;5.30;;;;;;;5.19;96.00;100675.85;106102;1292;58796;-70
2023/04/17 02:29:20;;;;;;;10.10;5.40;;;;;;;5.19;95.66;100673.73;106146;1293;72786;-68
2023/04/17 02:32:08;;;;;;;9.00;4.70;;;;;;;5.21;95.63;100676.11;106034;1292;68449;-68
2023/04/17 02:34:56;;;;;;;11.60;5.70;;;;;;;5.20;95.53;100673.50;106021;1292;71779;-70
2023/04/17 02:37:44;;;;;;;9.40;4.50;;;;;;;5.19;95.71;100678.30;106033;1292;57774;-67
2023/04/17 02:40:32;;;;;;;10.20;5.10;;;;;;;5.17;95.74;100680.31;106010;1292;60133;-69
2023/04/17 02:43:21;;;;;;;9.50;4.80;;;;;;;5.19;95.59;100681.33;105894;1292;72066;-69
2023/04/17 02:46:09;;;;;;;9.90;5.60;;;;;;;5.19;95.90;100682.17;105944;1292;66402;-69
2023/04/17 02:48:57;;;;;;;10.10;5.00;;;;;;;5.20;95.83;100684.60;106065;1293;72506;-68
2023/04/17 02:51:45;;;;;;;10.40;5.50;;;;;;;5.19;95.54;100687.63;105990;1293;57466;-67
2023/04/17 02:54:33;;;;;;;9.70;5.40;;;;;;;5.18;95.55;100685.23;106031;1293;60066;-69
2023/04/17 02:57:22;;;;;;;9.80;5.00;;;;;;;5.16;95.97;100689.52;106109;1291;71968;-69
2023/04/17 03:00:13;;;;;;;11.20;5.40;;;;;;;5.18;95.91;100689.08;106296;1290;68102;-68
2023/04/17 03:03:02;;;;;;;10.60;5.80;;;;;;;5.21;95.66;100690.38;106273;1290;71217;-68
2023/04/17 03:05:50;;;;;;;12.00;6.10;;;;;;;5.17;95.97;100685.61;106351;1290;59429;-67
2023/04/17 03:08:38;;;;;;;11.30;6.10;;;;;;;5.23;96.03;100695.20;106095;1290;60360;-67
2023/04/17 03:11:26;;;;;;;10.90;6.60;;;;;;;5.25;96.15;100698.11;106131;1290;73277;-67
2023/04/17 03:14:14;;;;;;;12.40;6.00;;;;;;;5.24;96.15;100702.87;106397;1291;66846;-66
2023/04/17 03:17:02;;;;;;;13.50;6.60;;;;;;;5.23;96.27;100703.45;106191;1290;72483;-69
2023/04/17 03:19:50;;;;;;;12.40;6.60;;;;;;;5.20;96.45;100701.82;106389;1290;57390;-68
2023/04/17 03:22:38;;;;;;;13.10;7.10;;;;;;;5.20;96.21;100704.11;106245;1290;59582;-69
2023/04/17 03:25:31;;;;;;;13.00;7.50;;;;;;;5.21;96.57;100703.36;106153;1290;71883;-66
2023/04/17 03:28:20;;;;;;;10.20;5.30;;;;;;;5.21;96.69;100708.81;106280;1290;66737;-68
2023/04/17 03:31:09;;;;;;;12.70;7.20;;;;;;;5.20;96.85;100708.02;106036;1293;72885;-68
2023/04/17 03:33:58;;;;;;;12.50;7.40;;;;;;;5.18;97.03;100702.80;105888;1292;58613;-69
2023/04/17 03:36:47;;;;;;;11.90;6.70;;;;;;;5.25;96.70;100709.85;106082;1293;60246;-69
2023/04/17 03:39:36;;;;;;;11.00;6.20;;;;;;;5.29;96.90;100710.44;106003;1294;73111;-68
2023/04/17 03:42:26;;;;;;;11.60;6.90;;;;;;;5.32;96.65;100712.77;105977;1293;66683;-68
2023/04/17 03:45:15;;;;;;;13.50;7.50;;;;;;;5.37;96.89;100715.86;106034;1292;71914;-69
2023/04/17 03:48:03;;;;;;;12.50;6.80;;;;;;;5.38;96.80;100717.38;106114;1292;57372;-68
2023/04/17 03:50:52;;;;;;;11.70;6.30;;;;;;;5.38;96.85;100721.27;106033;1293;59205;-69
2023/04/17 03:53:40;;;;;;;10.80;5.80;;;;;;;5.36;96.73;100725.23;105956;1293;73198;-67
2023/04/17 03:56:29;;;;;;;13.40;7.10;;;;;;;5.34;97.30;100725.48;105998;1292;68080;-69
2023/04/17 03:59:18;;;;;;;12.10;7.20;;;;;;;5.34;97.20;100727.79;105979;1294;73381;-67
2023/04/17 04:02:06;;;;;;;12.20;7.20;;;;;;;5.34;97.11;100729.36;106023;1291;58729;-70
2023/04/17 04:04:55;;;;;;;12.20;6.70;;;;;;;5.37;97.32;100729.39;106175;1290;60406;-71
2023/04/17 04:07:43;;;;;;;12.90;6.60;;;;;;;5.37;97.11;100730.79;106318;1290;73247;-69
2023/04/17 04:10:31;;;;;;;12.00;7.00;;;;;;;5.38;97.00;100732.02;106273;1290;66389;-72
2023/04/17 04:13:19;;;;;;;12.20;6.50;;;;;;;5.41;96.92;100733.28;106279;1290;72904;-70
2023/04/17 04:16:14;;;;;;;11.80;6.90;;;;;;;5.45;96.84;100731.16;106158;1290;58603;-71
2023/04/17 04:19:05;;;;;;;12.30;6.60;;;;;;;5.48;96.93;100731.38;106371;1290;61853;-73
2023/04/17 04:21:54;;;;;;;12.70;7.40;;;;;;;5.49;96.29;100734.88;106261;1290;72941;-68
2023/04/17 04:24:43;;;;;;;9.80;5.40;;;;;;;5.50;96.51;100733.77;106345;1291;67882;-71
2023/04/17 04:27:32;;;;;;;12.90;7.40;;;;;;;5.50;96.26;100734.09;106401;1290;72300;-71
2023/04/17 04:30:20;;;;;;;11.50;6.40;;;;;;;5.52;96.41;100736.11;106243;1291;58429;-69
2023/04/17 04:33:10;;;;;;;11.20;5.30;;;;;;;5.55;96.77;100735.61;106190;1290;59283;-71
2023/04/17 04:36:02;;;;;;;11.20;6.10;;;;;;;5.56;96.36;100739.45;106227;1291;72820;-72
2023/04/17 04:38:51;;;;;;;15.50;7.40;;;;;;;5.55;96.24;100741.23;106241;1290;66600;-70
2023/04/17 04:41:45;;;;;;;17.50;9.30;;;;;;;5.55;96.91;100741.10;106347;1290;71122;-70
2023/04/17 04:44:33;;;;;;;17.00;9.20;;;;;;;5.51;96.38;100744.07;106172;1290;57558;-70
2023/04/17 04:47:22;;;;;;;14.80;8.00;;;;;;;5.52;96.76;100745.62;106249;1290;60504;-74
2023/04/17 04:50:10;;;;;;;15.50;8.50;;;;;;;5.56;96.99;100750.52;106322;1290;72920;-70
2023/04/17 04:52:58;;;;;;;14.90;8.30;;;;;;;5.58;96.67;100749.90;106341;1290;67892;-70
2023/04/17 04:55:59;;;;;;;17.40;9.30;;;;;;;5.59;96.20;100748.66;106120;1291;71840;-70
2023/04/17 04:58:47;;;;;;;12.90;7.10;;;;;;;5.60;96.24;100752.27;106188;1291;57594;-71
2023/04/17 05:01:36;;;;;;;16.20;9.30;;;;;;;5.61;96.18;100755.95;106274;1290;60367;-70
2023/04/17 05:04:24;;;;;;;17.80;9.70;;;;;;;5.62;96.08;100757.46;106335;1290;73107;-72
2023/04/17 05:07:14;;;;;;;16.40;9.30;;;;;;;5.66;96.02;100756.60;106293;1291;66767;-71
2023/04/17 05:10:05;;;;;;;14.30;6.70;;;;;;;5.70;95.78;100757.48;106339;1290;72869;-71
2023/04/17 05:12:55;;;;;;;17.60;9.80;;;;;;;5.72;95.57;100760.16;106371;1290;58349;-67
2023/04/17 05:15:43;;;;;;;14.00;7.10;;;;;;;5.77;95.40;100760.48;106360;1291;60276;-71
2023/04/17 05:18:31;;;;;;;16.10;7.80;;;;;;;5.77;94.76;100761.89;106304;1291;72967;-69
2023/04/17 05:21:19;;;;;;;16.40;9.20;;;;;;;5.80;95.11;100765.29;106263;1290;67713;-72
2023/04/17 05:24:09;;;;;;;14.00;8.40;;;;;;;5.83;95.05;100762.87;106105;1291;73834;-69
2023/04/17 05:26:57;;;;;;;15.30;8.50;;;;;;;5.85;94.61;100764.36;106125;1290;58613;-68
2023/04/17 05:29:44;;;;;;;14.00;8.00;;;;;;;5.88;94.92;100767.55;106070;1291;60540;-71
2023/04/17 05:32:33;;;;;;;14.30;7.90;;;;;;;5.92;94.68;100767.70;106324;1290;72955;-72
2023/04/17 05:35:48;;;;;;;16.40;9.10;;;;;;;5.94;94.26;100768.48;106252;1290;66012;-71
2023/04/17 05:38:36;;;;;;;15.00;7.90;;;;;;;5.95;94.54;100774.82;106043;1290;72512;-70
2023/04/17 05:41:29;;;;;;;17.00;8.80;;;;;;;5.95;94.69;100773.56;106308;1291;57989;-72
2023/04/17 05:44:16;;;;;;;15.50;8.20;;;;;;;5.95;94.56;100777.09;106184;1290;60498;-71
2023/04/17 05:47:05;;;;;;;14.70;8.40;;;;;;;5.93;94.09;100781.03;106235;1290;71808;-70
2023/04/17 05:49:56;;;;;;;16.70;8.60;;;;;;;5.96;94.17;100781.07;106259;1290;66313;-71
2023/04/17 05:52:47;;;;;;;17.30;9.20;;;;;;;5.98;94.10;100790.00;106337;1290;72435;-70
2023/04/17 05:55:35;;;;;;;16.30;9.40;;;;;;;6.01;94.44;100793.59;106212;1291;58371;-70
2023/04/17 05:58:25;;;;;;;14.80;8.90;;;;;;;6.04;94.03;100793.98;106267;1290;60831;-71
2023/04/17 06:01:21;;;;;;;16.80;9.90;;;;;;;6.10;93.92;100797.18;105978;1295;73177;-69
2023/04/17 06:04:11;;;;;;;;;;;;;;;6.19;93.54;100804.05;105987;1292;67096;-68
2023/04/17 06:07:01;;;;;;;17.80;9.80;;;;;;;6.25;93.44;100805.11;105788;1297;221780;-73
2023/04/17 06:09:49;;;;;;;16.70;9.10;;;;;;;6.31;92.78;100803.98;106009;1293;57528;-70
2023/04/17 06:12:37;;;;;;;18.40;10.70;;;;;;;6.36;92.67;100805.34;106066;1292;59312;-72
2023/04/17 06:15:27;;;;;;;17.10;8.80;;;;;;;6.43;92.46;100806.88;106066;1292;71807;-69
2023/04/17 06:18:16;;;;;;;16.30;8.60;;;;;;;6.52;92.00;100811.41;105955;1292;66744;-70
2023/04/17 06:21:08;;;;;;;18.30;10.10;;;;;;;6.58;91.68;100812.86;105908;1293;72841;-69
2023/04/17 06:23:56;;;;;;;17.30;9.00;;;;;;;6.64;90.87;100811.02;105971;1292;57587;-71
2023/04/17 06:26:43;;;;;;;14.30;8.20;;;;;;;6.69;90.69;100811.99;106116;1292;59313;-71
2023/04/17 06:29:32;;;;;;;21.10;9.90;;;;;;;6.76;90.61;100815.52;106209;1292;71908;-70
2023/04/17 06:32:20;;;;;;;20.50;13.20;;;;;;;6.86;90.41;100814.66;106247;1290;66341;-70
2023/04/17 06:35:11;;;;;;;16.70;9.10;;;;;;;6.93;89.29;100817.48;106314;1290;71243;-69
2023/04/17 06:38:04;;;;;;;15.60;8.70;;;;;;;7.01;88.90;100819.77;106186;1291;57337;-68
2023/04/17 06:40:52;;;;;;;14.30;7.80;;;;;;;7.06;87.97;100815.44;106416;1290;60323;-71
2023/04/17 06:43:39;;;;;;;13.70;6.60;;;;;;;7.11;88.15;100816.94;106225;1290;73889;-70
2023/04/17 06:46:34;;;;;;;15.30;8.90;;;;;;;7.15;87.75;100817.79;106109;1291;66742;-73
2023/04/17 06:49:23;;;;;;;13.90;8.20;;;;;;;7.20;86.26;100818.42;106301;1290;71983;-70
2023/04/17 06:52:11;;;;;;;14.20;7.70;;;;;;;7.19;85.93;100819.05;106353;1290;58893;-70
2023/04/17 06:54:59;;;;;;;14.60;7.50;;;;;;;7.20;85.85;100820.16;106519;1288;60483;-70
2023/04/17 06:57:47;;;;;;;13.40;7.20;;;;;;;7.21;85.53;100821.74;106463;1288;72866;-68
2023/04/17 07:00:35;;;;;;;16.00;8.10;;;;;;;7.17;84.91;100830.59;106103;1288;67933;-67
2023/04/17 07:03:22;;;;;;;15.20;8.20;;;;;;;7.16;85.02;100835.38;106416;1288;72908;-70
2023/04/17 07:06:11;;;;;;;10.70;5.90;;;;;;;7.24;85.28;100836.04;106442;1288;59710;-72
2023/04/17 07:09:00;;;;;;;16.00;8.70;;;;;;;7.37;85.10;100837.67;106256;1288;60114;-70
2023/04/17 07:11:48;;;;;;;15.20;8.60;;;;;;;7.42;83.98;100840.27;106578;1288;72433;-72
2023/04/17 07:14:37;;;;;;;15.50;8.00;;;;;;;7.44;83.21;100843.32;106461;1288;67047;-72
2023/04/17 07:17:26;;;;;;;15.00;8.60;;;;;;;7.49;83.54;100844.61;106436;1288;72729;-71
2023/04/17 07:20:13;;;;;;;13.60;7.50;;;;;;;7.53;82.21;100847.80;106540;1288;57935;-72
2023/04/17 07:23:01;;;;;;;14.90;8.70;;;;;;;7.52;81.38;100849.96;106434;1288;60097;-70
2023/04/17 07:25:49;;;;;;;15.30;9.10;;;;;;;7.52;81.34;100851.92;106265;1288;71844;-72
2023/04/17 07:28:38;;;;;;;14.90;9.20;;;;;;;7.55;80.84;100860.94;106510;1288;66553;-71
2023/04/17 07:31:27;;;;;;;16.00;9.20;;;;;;;7.63;81.15;100860.52;106409;1288;72662;-72
2023/04/17 07:34:16;;;;;;;15.10;8.40;;;;;;;7.66;80.55;100866.17;106441;1288;57357;-70
2023/04/17 07:37:04;;;;;;;14.20;8.10;;;;;;;7.71;80.50;100868.25;106425;1288;58568;-73
2023/04/17 07:39:52;;;;;;;14.50;8.40;;;;;;;7.77;80.59;100873.05;105712;1288;1003044;-70
2023/04/17 07:42:40;;;;;;;15.60;9.00;;;;;;;7.80;79.63;100875.83;106582;1288;67252;-76
2023/04/17 07:45:28;;;;;;;17.40;10.60;;;;;;;7.86;79.80;100875.02;106501;1288;72715;-75
2023/04/17 07:48:18;;;;;;;16.30;9.50;;;;;;;7.94;78.71;100880.95;106336;1288;58026;-76
2023/04/17 07:51:06;;;;;;;13.20;7.80;;;;;;;8.07;79.01;100881.33;106464;1288;58648;-75
2023/04/17 07:53:54;;;;;;;10.80;5.00;;;;;;;8.19;78.81;100879.95;106253;1289;73312;-75
2023/04/17 07:56:45;;;;;;;14.00;8.50;;;;;;;8.39;78.28;100885.92;106279;1288;67963;-69
2023/04/17 07:59:35;;;;;;;14.50;8.20;;;;;;;8.45;77.48;100888.45;106558;1288;72793;-70
2023/04/17 08:02:22;;;;;;;14.20;8.40;;;;;;;8.41;77.08;100890.98;106405;1289;57427;-71
2023/04/17 08:05:10;;;;;;;13.10;7.80;;;;;;;8.31;76.45;100892.73;106401;1289;58754;-70
2023/04/17 08:08:00;;;;;;;11.60;6.20;;;;;;;8.26;76.65;100894.25;106312;1288;73138;-71
2023/04/17 08:10:49;;;;;;;13.20;7.20;;;;;;;8.22;76.73;100896.75;106307;1288;68027;-70
2023/04/17 08:13:37;;;;;;;13.40;8.00;;;;;;;8.14;76.62;100892.95;106524;1288;72786;-73
2023/04/17 08:16:25;;;;;;;13.10;7.80;;;;;;;8.16;76.43;100906.27;106325;1288;57358;-69
2023/04/17 08:19:13;;;;;;;14.20;8.00;;;;;;;8.18;76.50;100906.15;106615;1288;58764;-71
2023/04/17 08:22:03;;;;;;;12.70;7.10;;;;;;;8.17;76.00;100910.64;106357;1288;71809;-70
2023/04/17 08:24:56;;;;;;;14.60;7.80;;;;;;;8.17;76.82;100911.36;106106;1291;69185;-70
2023/04/17 08:27:45;;;;;;;13.30;7.40;;;;;;;8.22;76.43;100915.89;105517;1291;1002330;-71
2023/04/17 08:30:37;;;;;;;11.90;6.60;;;;;;;8.21;76.31;100920.33;106142;1291;59858;-74
2023/04/17 08:33:25;;;;;;;16.60;7.70;;;;;;;8.28;76.31;100916.05;106179;1291;60884;-71
2023/04/17 08:36:13;;;;;;;13.00;6.40;;;;;;;8.45;75.46;100924.56;106109;1291;72804;-70
2023/04/17 08:39:01;;;;;;;13.50;6.80;;;;;;;8.49;74.46;100923.25;106030;1292;67862;-70
2023/04/17 08:42:06;;;;;;;13.40;6.90;;;;;;;8.50;74.05;100932.05;106226;1291;72502;-69
2023/04/17 08:45:05;;;;;;;13.90;7.80;;;;;;;8.45;74.06;100934.80;106229;1291;57397;-71
2023/04/17 08:47:52;;;;;;;13.60;6.70;;;;;;;8.35;74.40;100932.14;106186;1291;58946;-71
2023/04/17 08:50:45;;;;;;;14.30;6.80;;;;;;;8.30;74.73;100940.34;106283;1291;72392;-70
2023/04/17 08:53:33;;;;;;;;;;;;;;;8.25;75.24;100941.20;106192;1291;67682;-73
2023/04/17 08:56:21;;;;;;;14.80;7.70;;;;;;;8.26;75.77;100942.36;106219;1291;73541;-71
2023/04/17 08:59:09;;;;;;;13.40;6.60;;;;;;;8.30;75.49;100941.95;106063;1291;58225;-71
2023/04/17 09:02:03;;;;;;;17.00;8.60;;;;;;;8.21;76.05;100942.77;106380;1288;58860;-70
2023/04/17 09:04:51;;;;;;;13.60;7.70;;;;;;;8.12;76.06;100945.03;106435;1288;73100;-69
2023/04/17 09:07:43;;;;;;;14.80;8.30;;;;;;;8.02;76.65;100945.73;106399;1288;68030;-69
2023/04/17 09:10:45;;;;;;;16.00;9.00;;;;;;;7.96;76.87;100948.00;106446;1288;72895;-71
2023/04/17 09:13:39;;;;;;;13.70;7.90;;;;;;;7.93;77.23;100950.45;106245;1288;58400;-71
2023/04/17 09:16:27;;;;;;;13.80;7.40;;;;;;;7.89;77.38;100954.55;106290;1288;60123;-70
2023/04/17 09:19:15;;;;;;;15.60;8.40;;;;;;;7.78;77.06;100956.86;106337;1293;71927;-69
2023/04/17 09:22:21;;;;;;;16.10;9.10;;;;;;;7.67;77.03;100960.27;106378;1288;68251;-71
2023/04/17 09:25:21;;;;;;;15.90;8.10;;;;;;;7.55;77.69;100959.50;106391;1291;72461;-69
2023/04/17 09:28:13;;;;;;;16.40;8.20;;;;;;;7.49;78.70;100962.08;106401;1288;57441;-70
2023/04/17 09:31:17;;;;;;;15.10;8.70;;;;;;;7.44;79.00;100960.57;106404;1288;60629;-72
2023/04/17 09:34:07;;;;;;;17.50;9.40;;;;;;;7.31;79.65;100959.10;106350;1288;73876;-69
2023/04/17 09:36:55;;;;;;;16.90;9.60;;;;;;;7.23;80.38;100962.15;106412;1289;66896;-73
2023/04/17 09:40:00;;;;;;;14.80;7.90;;;;;;;7.15;80.46;100961.12;106212;1288;71587;-69
2023/04/17 09:43:00;;;;;;;13.80;7.90;;;;;;;7.14;81.05;100973.69;106342;1288;57374;-72
2023/04/17 09:45:47;;;;;;;16.90;8.50;;;;;;;7.14;81.31;100976.13;106396;1289;61607;-72
2023/04/17 09:48:35;;;;;;;14.10;8.10;;;;;;;7.21;81.33;100982.70;106380;1288;73310;-69
2023/04/17 09:51:25;;;;;;;15.90;8.50;;;;;;;7.25;81.13;100981.44;106491;1288;66621;-70
2023/04/17 09:54:14;;;;;;;12.90;6.80;;;;;;;7.30;80.86;100979.08;106540;1288;72429;-72
2023/04/17 09:57:07;;;;;;;15.50;7.70;;;;;;;7.33;80.13;100981.94;105587;1288;1002489;-68
2023/04/17 10:00:00;;;;;;;15.70;7.40;;;;;;;7.42;80.82;100985.58;106426;1288;60006;-71
2023/04/17 10:02:51;;;;;;;13.90;7.90;;;;;;;7.53;80.74;100986.21;105624;1288;1002169;-72
2023/04/17 10:05:39;;;;;;;14.90;6.80;;;;;;;7.66;79.71;100982.23;106391;1288;66415;-70
2023/04/17 10:08:27;;;;;;;16.00;8.20;;;;;;;7.69;78.66;100985.10;106434;1288;73576;-72
2023/04/17 10:11:15;;;;;;;11.70;6.50;;;;;;;7.73;79.10;100990.02;106416;1288;57287;-71
2023/04/17 10:14:19;;;;;;;13.70;6.70;;;;;;;7.82;78.82;100987.45;106605;1288;60091;-71
2023/04/17 10:17:31;;;;;;;13.40;7.40;;;;;;;7.85;77.76;100985.69;106357;1289;72889;-71
2023/04/17 10:20:21;;;;;;;15.20;7.80;;;;;;;7.87;78.07;100983.98;106369;1290;67980;-69
2023/04/17 10:23:34;;;;;;;14.50;8.00;;;;;;;7.95;78.22;100984.28;106493;1288;72589;-71
2023/04/17 10:26:28;;;;;;;16.00;7.90;;;;;;;8.11;77.55;100983.08;106318;1291;57403;-72
2023/04/17 10:29:17;;;;;;;13.80;7.80;;;;;;;8.23;77.30;100986.17;106539;1289;58808;-72
2023/04/17 10:32:14;;;;;;;15.50;7.90;;;;;;;8.37;76.81;100988.80;106398;1289;71538;-72
2023/04/17 10:35:14;;;;;;;;;;;;;;;8.52;76.62;100986.10;106415;1288;65995;-71
2023/04/17 10:38:07;;;;;;;15.50;8.80;;;;;;;8.56;74.12;100988.52;106580;1289;72717;-70
2023/04/17 10:40:55;;;;;;;15.50;8.00;;;;;;;8.67;74.50;100983.99;106572;1289;58233;-70
2023/04/17 10:43:46;;;;;;;15.10;7.90;;;;;;;8.74;72.64;100989.47;106463;1289;58748;-71
2023/04/17 10:46:46;;;;;;;15.30;7.20;;;;;;;8.86;72.53;100988.65;106608;1289;71090;-71
2023/04/17 10:49:54;;;;;;;15.40;7.90;;;;;;;9.06;72.79;100992.66;106435;1289;67981;-71
2023/04/17 10:52:44;;;;;;;12.80;6.90;;;;;;;9.34;72.13;100993.35;106402;1289;73377;-71
2023/04/17 10:55:32;;;;;;;14.80;8.10;;;;;;;9.59;70.21;100991.04;106414;1288;58108;-69
2023/04/17 10:58:20;;;;;;;17.50;8.20;;;;;;;9.65;66.78;100993.52;106372;1294;59209;-70
2023/04/17 11:01:18;;;;;;;11.10;6.20;;;;;;;9.81;66.89;100994.34;106449;1289;73883;-70
2023/04/17 11:04:08;;;;;;;12.70;6.10;;;;;;;9.95;65.38;100993.33;106468;1289;67682;-70
2023/04/17 11:06:56;;;;;;;11.10;6.30;;;;;;;9.99;64.65;100993.08;106565;1288;72801;-71
2023/04/17 11:09:50;;;;;;;11.30;6.00;;;;;;;10.04;63.81;100997.02;106435;1289;57805;-71
2023/04/17 11:12:38;;;;;;;13.90;6.20;;;;;;;10.06;62.97;100999.26;106286;1289;60227;-70
2023/04/17 11:15:32;;;;;;;12.30;5.50;;;;;;;10.02;62.30;100997.34;106433;1288;71644;-71
2023/04/17 11:18:21;;;;;;;12.70;6.40;;;;;;;10.02;62.60;100997.00;106351;1289;66720;-71
2023/04/17 11:21:11;;;;;;;11.90;6.40;;;;;;;10.09;63.11;100999.59;106340;1289;71747;-72
2023/04/17 11:24:02;;;;;;;12.40;6.60;;;;;;;10.05;62.20;101001.24;106227;1290;57265;-71
2023/04/17 11:26:50;;;;;;;9.30;5.90;;;;;;;9.95;62.79;100999.90;106591;1292;58784;-68
2023/04/17 11:29:37;;;;;;;13.10;6.10;;;;;;;9.93;64.03;101003.59;106401;1289;73215;-73
2023/04/17 11:32:26;;;;;;;10.00;5.50;;;;;;;9.93;64.14;101009.79;106569;1288;66614;-70
2023/04/17 11:35:13;;;;;;;12.60;7.20;;;;;;;9.94;64.17;101009.88;106428;1289;72488;-72
2023/04/17 11:38:13;;;;;;;13.20;6.90;;;;;;;9.93;64.89;101011.88;106443;1289;57431;-70
2023/04/17 11:41:01;;;;;;;10.30;5.20;;;;;;;9.90;64.43;101006.55;106423;1288;61204;-70
2023/04/17 11:43:50;;;;;;;14.10;6.20;;;;;;;9.95;65.13;101010.73;106424;1289;73061;-72
2023/04/17 11:46:38;;;;;;;10.20;5.20;;;;;;;10.08;65.03;101012.60;106422;1288;67655;-70
2023/04/17 11:49:28;;;;;;;14.40;7.10;;;;;;;10.19;64.63;101014.95;106350;1288;72733;-71
2023/04/17 11:52:16;;;;;;;13.10;6.50;;;;;;;10.27;64.59;101015.19;106365;1288;57343;-71
2023/04/17 11:55:07;;;;;;;11.30;6.20;;;;;;;10.32;64.28;101011.16;106462;1288;59157;-70
2023/04/17 11:58:01;;;;;;;12.20;7.00;;;;;;;10.30;63.85;101016.06;106446;1289;73196;-74
2023/04/17 12:01:05;;;;;;;12.70;7.50;;;;;;;10.32;63.97;101017.67;106301;1288;68766;-72
2023/04/17 12:03:58;;;;;;;14.30;6.90;;;;;;;10.20;63.70;101023.52;106549;1288;71305;-70
2023/04/17 12:06:46;;;;;;;13.60;7.20;;;;;;;10.09;64.32;101027.80;106284;1288;57363;-70
2023/04/17 12:09:35;;;;;;;11.60;6.90;;;;;;;10.01;64.63;101030.34;106284;1288;59201;-71
2023/04/17 12:12:23;;;;;;;13.60;7.80;;;;;;;9.96;65.07;101025.16;106433;1289;71852;-72
2023/04/17 12:15:11;;;;;;;11.70;6.70;;;;;;;9.97;64.45;101027.05;104729;1289;1003036;-72
2023/04/17 12:17:58;;;;;;;13.30;6.40;;;;;;;10.01;64.86;101024.19;106438;1289;72611;-71
2023/04/17 12:20:47;;;;;;;11.50;6.00;;;;;;;10.08;65.13;101026.80;106577;1289;57698;-71
2023/04/17 12:23:35;;;;;;;12.80;6.60;;;;;;;10.13;64.87;101025.75;106382;1289;57868;-70
2023/04/17 12:26:27;;;;;;;11.20;6.30;;;;;;;10.23;65.08;101024.13;106446;1288;71521;-72
2023/04/17 12:29:15;;;;;;;13.60;7.20;;;;;;;10.28;64.75;101027.17;106604;1289;67904;-71
2023/04/17 12:32:04;;;;;;;13.30;8.00;;;;;;;10.28;64.26;101023.96;106393;1288;71859;-73
2023/04/17 12:34:52;;;;;;;15.60;7.90;;;;;;;10.09;64.43;101023.89;106490;1289;58157;-73
2023/04/17 12:37:41;;;;;;;15.40;8.40;;;;;;;9.86;65.91;101022.73;106431;1288;59253;-72
2023/04/17 12:40:29;;;;;;;13.40;6.60;;;;;;;9.74;66.51;101021.36;106277;1290;72968;-72
2023/04/17 12:43:17;;;;;;;14.00;7.40;;;;;;;9.75;67.06;101020.41;106433;1288;66695;-74
2023/04/17 12:46:04;;;;;;;15.20;8.30;;;;;;;9.79;66.91;101022.48;106459;1288;72760;-71
2023/04/17 12:48:58;;;;;;;17.40;8.60;;;;;;;9.79;67.01;101019.66;106362;1288;58037;-73
2023/04/17 12:51:46;;;;;;;15.70;7.80;;;;;;;9.76;66.09;101022.81;106426;1289;58723;-75
2023/04/17 12:54:34;;;;;;;13.10;7.00;;;;;;;9.73;66.14;101030.25;106549;1288;72929;-72
2023/04/17 12:57:21;;;;;;;14.10;7.90;;;;;;;9.60;65.72;101024.10;106370;1288;67234;-71
2023/04/17 13:00:09;;;;;;;12.40;7.40;;;;;;;9.58;65.61;101034.30;106437;1288;72829;-71
2023/04/17 13:02:58;;;;;;;16.00;8.00;;;;;;;9.54;66.03;101032.26;106496;1288;57293;-71